Nathalie — OJLP — position and weather

sailwx.info

Track history (hours):
 
Tides and Currents Weather Stations Pressure Air Temp Water Temp Dewpoint Dewpoint Depression Visibility Wind Speed Wind Dir Waves Ship Positions

Nathalie

Last reported at 2017-Apr-28 18:10 UTC. Time now 2017-May-01 02:33 UTC.
Position N 60°18' E 019°03'.

Length 64 m; draft 3.5 m.

Type: Cargo ship. MMSI: 230987660.

Date/timePositionNaut miles runAvg speedWind from/ knotsBaromVisibWave heightAir tempDewpointWater temp
2017-Apr-28 18:10N 60°18' E 019°03'1 8.0
2017-Apr-28 18:00N 60°17' E 019°02'4 7.7
2017-Apr-28 17:28N 60°13' E 019°03'4 8.4
2017-Apr-28 17:00N 60°09' E 019°06'4 8.3
2017-Apr-28 16:30N 60°05' E 019°05'4 8.5
2017-Apr-28 16:00N 60°01' E 019°05'4 8.8
2017-Apr-28 15:29N 59°56' E 019°05'4 8.8
2017-Apr-28 15:00N 59°52' E 019°05'9 8.6
2017-Apr-28 14:00N 59°43' E 019°07'4 7.7
2017-Apr-28 13:30N 59°40' E 019°10'5 9.0
2017-Apr-28 13:00N 59°36' E 019°08'201 9.1
2017-Apr-27 15:01N 56°35' E 016°20'0 9.6
2017-Apr-27 15:00N 56°35' E 016°20'9 9.4
2017-Apr-27 14:00N 56°26' E 016°14'5 9.5
2017-Apr-27 13:30N 56°22' E 016°11'5 9.5
2017-Apr-27 13:00N 56°17' E 016°09'5 9.6
2017-Apr-27 12:30N 56°13' E 016°06'5 9.5
2017-Apr-27 12:00N 56°09' E 016°02'5 9.6
2017-Apr-27 11:30N 56°05' E 015°57'5 9.6
2017-Apr-27 11:00N 56°01' E 015°52'5 9.5
2017-Apr-27 10:30N 55°57' E 015°46'5 9.5
2017-Apr-27 10:00N 55°54' E 015°40'5 9.5
2017-Apr-27 09:30N 55°51' E 015°33'7 9.5
2017-Apr-27 08:46N 55°47' E 015°24'3 9.4
2017-Apr-27 08:26N 55°45' E 015°19'6 9.4
2017-Apr-27 07:49N 55°42' E 015°10'3 9.3
2017-Apr-27 07:30N 55°40' E 015°06'5 9.3
2017-Apr-27 07:00N 55°38' E 014°59'5 9.4
2017-Apr-27 06:30N 55°35' E 014°52'5 9.4
2017-Apr-27 05:58N 55°32' E 014°45'4 9.2
2017-Apr-27 05:30N 55°30' E 014°38'5 9.3
2017-Apr-27 05:00N 55°27' E 014°31'5 9.3
2017-Apr-27 04:30N 55°25' E 014°24'5 9.5
2017-Apr-27 03:59N 55°22' E 014°17'5 9.4
2017-Apr-27 03:30N 55°20' E 014°10'5 9.4
2017-Apr-27 03:00N 55°19' E 014°02'5 9.5
2017-Apr-27 02:30N 55°18' E 013°54'5 9.5
2017-Apr-27 01:58N 55°18' E 013°45'4 9.5
2017-Apr-27 01:30N 55°17' E 013°38'510.0
2017-Apr-27 00:59N 55°17' E 013°29'15 9.6
2017-Apr-26 23:23N 55°15' E 013°02'4 9.4
2017-Apr-26 22:56N 55°15' E 012°54'4 9.9
2017-Apr-26 22:29N 55°16' E 012°47'510.0
2017-Apr-26 22:00N 55°18' E 012°39'5 8.9
2017-Apr-26 21:30N 55°22' E 012°39'5 9.9
2017-Apr-26 21:00N 55°27' E 012°41'5 9.3
2017-Apr-26 20:30N 55°32' E 012°42'4 8.6
2017-Apr-26 20:00N 55°36' E 012°42'4 8.4
2017-Apr-26 19:30N 55°40' E 012°41'4 8.9
2017-Apr-26 19:00N 55°45' E 012°41'5 9.2
2017-Apr-26 18:30N 55°49' E 012°40'5 9.0
2017-Apr-26 18:00N 55°54' E 012°39'4 8.9
2017-Apr-26 17:30N 55°58' E 012°38'4 8.6
2017-Apr-26 17:00N 56°03' E 012°38'4 7.6
2017-Apr-26 16:30N 56°05' E 012°34'4 8.7
2017-Apr-26 16:00N 56°08' E 012°27'5 9.1
2017-Apr-26 15:30N 56°09' E 012°19'16 0.5
2017-Apr-25 11:02N 55°58' E 012°01'0 0.0
2017-Apr-25 10:11N 55°58' E 012°01'0 0.0
2017-Apr-25 09:59N 55°58' E 012°01'0 0.0
2017-Apr-25 08:35N 55°58' E 012°01'0 0.0
2017-Apr-25 08:29N 55°58' E 012°01'0 0.0
2017-Apr-25 06:58N 55°58' E 012°01'0 0.0
2017-Apr-25 06:28N 55°58' E 012°01'0 0.0
2017-Apr-25 05:58N 55°58' E 012°01'0 0.0
2017-Apr-25 05:25N 55°58' E 012°01'0 0.0
2017-Apr-25 04:55N 55°58' E 012°01'0 0.9
2017-Apr-25 04:30N 55°57' E 012°00'3 5.4
2017-Apr-25 04:00N 55°57' E 011°56'3 6.2
2017-Apr-25 03:30N 55°55' E 011°51'46 4.0
2017-Apr-24 15:49N 55°18' E 011°02'4 9.1
2017-Apr-24 15:23N 55°17' E 010°55'4 9.1
2017-Apr-24 15:00N 55°17' E 010°49'1 0.4
2017-Apr-24 12:34N 55°18' E 010°48'0 0.0
2017-Apr-24 12:22N 55°18' E 010°48'0 0.0
2017-Apr-24 07:12N 55°18' E 010°48'64 7.4
2017-Apr-23 22:29N 54°54' E 012°32'9 9.4
2017-Apr-23 21:32N 54°60' E 012°43'1 8.9
2017-Apr-23 21:27N 55°00' E 012°44'10 8.9
2017-Apr-23 20:23N 55°07' E 012°57'3 8.8
2017-Apr-23 20:00N 55°08' E 013°02'21 8.8
2017-Apr-23 17:37N 55°11' E 013°38'1 8.9
2017-Apr-23 17:30N 55°11' E 013°40'4 8.9
2017-Apr-23 17:00N 55°12' E 013°47'4 8.8
2017-Apr-23 16:30N 55°12' E 013°55'5 8.7
2017-Apr-23 15:58N 55°13' E 014°03'4 8.6
2017-Apr-23 15:30N 55°13' E 014°10'4 8.3
2017-Apr-23 15:00N 55°14' E 014°17'9 8.5
2017-Apr-23 13:57N 55°21' E 014°27'4 8.7
2017-Apr-23 13:30N 55°25' E 014°31'5 9.2
2017-Apr-23 13:00N 55°28' E 014°37'5 9.6
2017-Apr-23 12:30N 55°31' E 014°43'5 9.5
2017-Apr-23 11:59N 55°34' E 014°50'4 9.5
2017-Apr-23 11:30N 55°36' E 014°57'5 9.6
2017-Apr-23 10:57N 55°40' E 015°04'4 9.6
2017-Apr-23 10:30N 55°43' E 015°09'100 9.1
2017-Apr-22 23:29N 57°08' E 016°45'5 9.6
2017-Apr-22 23:00N 57°12' E 016°48'141 9.4
2017-Apr-22 07:58N 59°18' E 018°46'5 9.9
2017-Apr-22 07:29N 59°22' E 018°51'5 9.8
2017-Apr-22 07:01N 59°26' E 018°57'5 9.6
2017-Apr-22 06:31N 59°29' E 019°03'5 9.4
2017-Apr-22 06:01N 59°34' E 019°07'5 9.7
2017-Apr-22 05:31N 59°38' E 019°09'5 9.8
2017-Apr-22 05:00N 59°43' E 019°11'5 9.2
2017-Apr-22 04:30N 59°45' E 019°18'5 9.2
2017-Apr-22 04:01N 59°48' E 019°27'4 9.0
2017-Apr-22 03:31N 59°50' E 019°34'  
Track history (hours):
 
Tides and Currents Weather Stations Pressure Air Temp Water Temp Dewpoint Dewpoint Depression Visibility Wind Speed Wind Dir Waves Ship Positions

Nathalie

Last reported at 2017-Apr-28 18:10 UTC. Time now 2017-May-01 02:33 UTC.
Position N 60°18' E 019°03'.

Length 64 m; draft 3.5 m.

Type: Cargo ship. MMSI: 230987660.

Date/timePositionNaut miles runAvg speedWind from/ knotsBaromVisibWave heightAir tempDewpointWater temp
2017-Apr-28 18:10N 60°18' E 019°03'1 8.0
2017-Apr-28 18:00N 60°17' E 019°02'4 7.7
2017-Apr-28 17:28N 60°13' E 019°03'4 8.4
2017-Apr-28 17:00N 60°09' E 019°06'4 8.3
2017-Apr-28 16:30N 60°05' E 019°05'4 8.5
2017-Apr-28 16:00N 60°01' E 019°05'4 8.8
2017-Apr-28 15:29N 59°56' E 019°05'4 8.8
2017-Apr-28 15:00N 59°52' E 019°05'9 8.6
2017-Apr-28 14:00N 59°43' E 019°07'4 7.7
2017-Apr-28 13:30N 59°40' E 019°10'5 9.0
2017-Apr-28 13:00N 59°36' E 019°08'201 9.1
2017-Apr-27 15:01N 56°35' E 016°20'0 9.6
2017-Apr-27 15:00N 56°35' E 016°20'9 9.4
2017-Apr-27 14:00N 56°26' E 016°14'5 9.5
2017-Apr-27 13:30N 56°22' E 016°11'5 9.5
2017-Apr-27 13:00N 56°17' E 016°09'5 9.6
2017-Apr-27 12:30N 56°13' E 016°06'5 9.5
2017-Apr-27 12:00N 56°09' E 016°02'5 9.6
2017-Apr-27 11:30N 56°05' E 015°57'5 9.6
2017-Apr-27 11:00N 56°01' E 015°52'5 9.5
2017-Apr-27 10:30N 55°57' E 015°46'5 9.5
2017-Apr-27 10:00N 55°54' E 015°40'5 9.5
2017-Apr-27 09:30N 55°51' E 015°33'7 9.5
2017-Apr-27 08:46N 55°47' E 015°24'3 9.4
2017-Apr-27 08:26N 55°45' E 015°19'6 9.4
2017-Apr-27 07:49N 55°42' E 015°10'3 9.3
2017-Apr-27 07:30N 55°40' E 015°06'5 9.3
2017-Apr-27 07:00N 55°38' E 014°59'5 9.4
2017-Apr-27 06:30N 55°35' E 014°52'5 9.4
2017-Apr-27 05:58N 55°32' E 014°45'4 9.2
2017-Apr-27 05:30N 55°30' E 014°38'5 9.3
2017-Apr-27 05:00N 55°27' E 014°31'5 9.3
2017-Apr-27 04:30N 55°25' E 014°24'5 9.5
2017-Apr-27 03:59N 55°22' E 014°17'5 9.4
2017-Apr-27 03:30N 55°20' E 014°10'5 9.4
2017-Apr-27 03:00N 55°19' E 014°02'5 9.5
2017-Apr-27 02:30N 55°18' E 013°54'5 9.5
2017-Apr-27 01:58N 55°18' E 013°45'4 9.5
2017-Apr-27 01:30N 55°17' E 013°38'510.0
2017-Apr-27 00:59N 55°17' E 013°29'15 9.6
2017-Apr-26 23:23N 55°15' E 013°02'4 9.4
2017-Apr-26 22:56N 55°15' E 012°54'4 9.9
2017-Apr-26 22:29N 55°16' E 012°47'510.0
2017-Apr-26 22:00N 55°18' E 012°39'5 8.9
2017-Apr-26 21:30N 55°22' E 012°39'5 9.9
2017-Apr-26 21:00N 55°27' E 012°41'5 9.3
2017-Apr-26 20:30N 55°32' E 012°42'4 8.6
2017-Apr-26 20:00N 55°36' E 012°42'4 8.4
2017-Apr-26 19:30N 55°40' E 012°41'4 8.9
2017-Apr-26 19:00N 55°45' E 012°41'5 9.2
2017-Apr-26 18:30N 55°49' E 012°40'5 9.0
2017-Apr-26 18:00N 55°54' E 012°39'4 8.9
2017-Apr-26 17:30N 55°58' E 012°38'4 8.6
2017-Apr-26 17:00N 56°03' E 012°38'4 7.6
2017-Apr-26 16:30N 56°05' E 012°34'4 8.7
2017-Apr-26 16:00N 56°08' E 012°27'5 9.1
2017-Apr-26 15:30N 56°09' E 012°19'16 0.5
2017-Apr-25 11:02N 55°58' E 012°01'0 0.0
2017-Apr-25 10:11N 55°58' E 012°01'0 0.0
2017-Apr-25 09:59N 55°58' E 012°01'0 0.0
2017-Apr-25 08:35N 55°58' E 012°01'0 0.0
2017-Apr-25 08:29N 55°58' E 012°01'0 0.0
2017-Apr-25 06:58N 55°58' E 012°01'0 0.0
2017-Apr-25 06:28N 55°58' E 012°01'0 0.0
2017-Apr-25 05:58N 55°58' E 012°01'0 0.0
2017-Apr-25 05:25N 55°58' E 012°01'0 0.0
2017-Apr-25 04:55N 55°58' E 012°01'0 0.9
2017-Apr-25 04:30N 55°57' E 012°00'3 5.4
2017-Apr-25 04:00N 55°57' E 011°56'3 6.2
2017-Apr-25 03:30N 55°55' E 011°51'46 4.0
2017-Apr-24 15:49N 55°18' E 011°02'4 9.1
2017-Apr-24 15:23N 55°17' E 010°55'4 9.1
2017-Apr-24 15:00N 55°17' E 010°49'1 0.4
2017-Apr-24 12:34N 55°18' E 010°48'0 0.0
2017-Apr-24 12:22N 55°18' E 010°48'0 0.0
2017-Apr-24 07:12N 55°18' E 010°48'64 7.4
2017-Apr-23 22:29N 54°54' E 012°32'9 9.4
2017-Apr-23 21:32N 54°60' E 012°43'1 8.9
2017-Apr-23 21:27N 55°00' E 012°44'10 8.9
2017-Apr-23 20:23N 55°07' E 012°57'3 8.8
2017-Apr-23 20:00N 55°08' E 013°02'21 8.8
2017-Apr-23 17:37N 55°11' E 013°38'1 8.9
2017-Apr-23 17:30N 55°11' E 013°40'4 8.9
2017-Apr-23 17:00N 55°12' E 013°47'4 8.8
2017-Apr-23 16:30N 55°12' E 013°55'5 8.7
2017-Apr-23 15:58N 55°13' E 014°03'4 8.6
2017-Apr-23 15:30N 55°13' E 014°10'4 8.3
2017-Apr-23 15:00N 55°14' E 014°17'9 8.5
2017-Apr-23 13:57N 55°21' E 014°27'4 8.7
2017-Apr-23 13:30N 55°25' E 014°31'5 9.2
2017-Apr-23 13:00N 55°28' E 014°37'5 9.6
2017-Apr-23 12:30N 55°31' E 014°43'5 9.5
2017-Apr-23 11:59N 55°34' E 014°50'4 9.5
2017-Apr-23 11:30N 55°36' E 014°57'5 9.6
2017-Apr-23 10:57N 55°40' E 015°04'4 9.6
2017-Apr-23 10:30N 55°43' E 015°09'100 9.1
2017-Apr-22 23:29N 57°08' E 016°45'5 9.6
2017-Apr-22 23:00N 57°12' E 016°48'141 9.4
2017-Apr-22 07:58N 59°18' E 018°46'5 9.9
2017-Apr-22 07:29N 59°22' E 018°51'5 9.8
2017-Apr-22 07:01N 59°26' E 018°57'5 9.6
2017-Apr-22 06:31N 59°29' E 019°03'5 9.4
2017-Apr-22 06:01N 59°34' E 019°07'5 9.7
2017-Apr-22 05:31N 59°38' E 019°09'5 9.8
2017-Apr-22 05:00N 59°43' E 019°11'5 9.2
2017-Apr-22 04:30N 59°45' E 019°18'5 9.2
2017-Apr-22 04:01N 59°48' E 019°27'4 9.0
2017-Apr-22 03:31N 59°50' E 019°34'  

Dump ship's entire track history